createdAt,value
2023-03-29T00:02:05.397Z,2.40
2023-03-29T00:04:33.999Z,3.10
2023-03-29T00:07:04.401Z,3.03
2023-03-29T00:09:33.310Z,3.97
2023-03-29T00:12:01.464Z,2.00
2023-03-29T00:14:30.682Z,3.80
2023-03-29T00:16:58.554Z,1.83
2023-03-29T00:19:25.408Z,2.30
2023-03-29T00:21:52.106Z,2.20
2023-03-29T00:24:18.883Z,2.43
2023-03-29T00:26:45.548Z,2.20
2023-03-29T00:29:12.232Z,4.60
2023-03-29T00:31:39.124Z,2.80
2023-03-29T00:34:05.907Z,2.30
2023-03-29T00:36:32.677Z,2.50
2023-03-29T00:38:59.321Z,3.00
2023-03-29T00:41:27.114Z,2.90
2023-03-29T00:44:02.308Z,3.30
2023-03-29T00:46:30.651Z,2.73
2023-03-29T00:49:05.808Z,3.27
2023-03-29T00:51:37.286Z,2.87
2023-03-29T00:54:14.626Z,2.80
2023-03-29T00:56:48.123Z,3.33
2023-03-29T00:59:28.426Z,2.90
2023-03-29T01:02:02.540Z,2.70
2023-03-29T01:04:36.837Z,2.67
2023-03-29T01:07:03.868Z,2.67
2023-03-29T01:09:33.801Z,3.47
2023-03-29T01:12:08.236Z,3.10
2023-03-29T01:14:41.776Z,4.53
2023-03-29T01:17:10.980Z,4.77
2023-03-29T01:19:44.203Z,3.60
2023-03-29T01:22:28.363Z,4.00
2023-03-29T01:25:26.640Z,4.33
2023-03-29T01:28:25.389Z,3.57
2023-03-29T01:30:59.251Z,4.53
2023-03-29T01:33:34.113Z,4.50
2023-03-29T01:36:16.475Z,4.90
2023-03-29T01:39:13.593Z,5.37
2023-03-29T01:41:40.265Z,7.20
2023-03-29T01:44:13.651Z,5.10
2023-03-29T01:46:46.747Z,4.53
2023-03-29T01:49:37.998Z,6.53
2023-03-29T01:52:23.995Z,5.30
2023-03-29T01:55:00.433Z,5.53
2023-03-29T01:57:27.473Z,4.73
2023-03-29T01:59:57.768Z,6.17
2023-03-29T02:02:27.685Z,3.77
2023-03-29T02:04:57.430Z,4.77
2023-03-29T02:07:30.606Z,4.90
2023-03-29T02:09:58.753Z,3.53
2023-03-29T02:12:25.467Z,3.73
2023-03-29T02:14:53.881Z,4.77
2023-03-29T02:17:24.168Z,4.97
2023-03-29T02:20:00.771Z,5.40
2023-03-29T02:22:39.261Z,4.87
2023-03-29T02:25:09.095Z,4.20
2023-03-29T02:27:38.063Z,5.20
2023-03-29T02:30:07.439Z,4.03
2023-03-29T02:32:51.847Z,4.47
2023-03-29T02:35:26.974Z,4.53
2023-03-29T02:37:56.021Z,4.13
2023-03-29T02:40:25.888Z,4.90
2023-03-29T02:42:55.574Z,5.10
2023-03-29T02:45:24.080Z,4.90
2023-03-29T02:47:57.083Z,4.27
2023-03-29T02:50:28.411Z,4.50
2023-03-29T02:53:05.545Z,4.23
2023-03-29T02:55:34.906Z,6.47
2023-03-29T02:58:08.464Z,6.77
2023-03-29T03:00:39.344Z,5.77
2023-03-29T03:03:07.921Z,5.43
2023-03-29T03:05:36.056Z,6.90
2023-03-29T03:08:04.492Z,4.73
2023-03-29T03:10:33.183Z,5.07
2023-03-29T03:13:00.745Z,6.37
2023-03-29T03:15:31.089Z,6.37
2023-03-29T03:17:57.868Z,6.93
2023-03-29T03:20:24.560Z,4.97
2023-03-29T03:22:51.495Z,4.07
2023-03-29T03:25:21.224Z,5.83
2023-03-29T03:27:50.307Z,5.27
2023-03-29T03:30:20.836Z,5.63
2023-03-29T03:33:06.625Z,3.90
2023-03-29T03:35:51.867Z,4.97
2023-03-29T03:38:18.609Z,3.80
2023-03-29T03:40:54.206Z,4.03
2023-03-29T03:43:21.883Z,5.40
2023-03-29T03:45:49.978Z,5.50
2023-03-29T03:48:20.407Z,5.27
2023-03-29T03:50:50.967Z,4.17
2023-03-29T03:53:18.578Z,5.30
2023-03-29T03:56:08.737Z,3.23
2023-03-29T03:58:44.272Z,4.27
2023-03-29T04:01:11.839Z,4.20
2023-03-29T04:03:50.810Z,5.27
2023-03-29T04:06:18.542Z,7.47
2023-03-29T04:09:14.153Z,3.37
2023-03-29T04:11:44.054Z,4.47
2023-03-29T04:14:12.539Z,5.57
2023-03-29T04:17:02.937Z,3.83
2023-03-29T04:19:48.122Z,3.60
2023-03-29T04:22:15.480Z,3.43
2023-03-29T04:24:42.813Z,3.57
2023-03-29T04:27:27.923Z,3.70
2023-03-29T04:29:55.265Z,4.07
2023-03-29T04:32:39.161Z,3.63
2023-03-29T04:35:09.237Z,4.53
2023-03-29T04:37:40.231Z,4.77
2023-03-29T04:40:09.846Z,4.83
2023-03-29T04:42:49.548Z,6.90
2023-03-29T04:45:19.201Z,3.23
2023-03-29T04:48:05.885Z,3.53
2023-03-29T04:50:33.033Z,4.80
2023-03-29T04:53:00.337Z,3.17
2023-03-29T04:55:28.393Z,3.33
2023-03-29T04:58:00.694Z,5.17
2023-03-29T05:00:33.487Z,4.57
2023-03-29T05:03:14.563Z,4.13
2023-03-29T05:06:06.590Z,4.50
2023-03-29T05:08:35.054Z,3.73
2023-03-29T05:11:19.766Z,3.63
2023-03-29T05:13:47.192Z,4.23
2023-03-29T05:16:13.888Z,4.60
2023-03-29T05:18:40.846Z,3.57
2023-03-29T05:21:07.650Z,4.67
2023-03-29T05:23:36.154Z,3.43
2023-03-29T05:26:31.910Z,3.57
2023-03-29T05:28:58.749Z,5.00
2023-03-29T05:31:26.402Z,5.03
2023-03-29T05:33:54.946Z,3.97
2023-03-29T05:36:21.902Z,4.87
2023-03-29T05:38:50.412Z,3.60
2023-03-29T05:41:19.154Z,4.57
2023-03-29T05:44:08.798Z,5.83
2023-03-29T05:46:36.725Z,5.33
2023-03-29T05:49:04.132Z,5.67
2023-03-29T05:51:52.006Z,3.60
2023-03-29T05:54:18.743Z,4.30
2023-03-29T05:56:45.559Z,3.83
2023-03-29T05:59:15.260Z,2.80
2023-03-29T06:01:42.650Z,7.40
2023-03-29T06:04:12.367Z,6.00
2023-03-29T06:06:48.824Z,4.00
2023-03-29T06:09:15.679Z,6.50
2023-03-29T06:11:53.603Z,4.40
2023-03-29T06:14:29.606Z,4.50
2023-03-29T06:17:06.984Z,3.87
2023-03-29T06:19:33.978Z,4.17
2023-03-29T06:22:00.934Z,3.63
2023-03-29T06:24:29.168Z,3.10
2023-03-29T06:27:02.211Z,4.57
2023-03-29T06:29:30.229Z,3.77
2023-03-29T06:31:57.194Z,5.70
2023-03-29T06:34:45.297Z,4.13
2023-03-29T06:37:29.108Z,4.03
2023-03-29T06:40:10.026Z,5.57
2023-03-29T06:42:45.919Z,4.50
2023-03-29T06:45:35.446Z,3.07
2023-03-29T06:48:07.857Z,4.20
2023-03-29T06:50:35.958Z,3.23
2023-03-29T06:53:15.677Z,4.60
2023-03-29T06:55:44.236Z,4.60
2023-03-29T06:58:35.827Z,4.20
2023-03-29T07:01:09.697Z,4.20
2023-03-29T07:03:47.428Z,4.77
2023-03-29T07:06:20.303Z,4.50
2023-03-29T07:08:50.532Z,4.53
2023-03-29T07:11:26.058Z,4.77
2023-03-29T07:13:56.175Z,5.77
2023-03-29T07:16:23.542Z,4.57
2023-03-29T07:18:53.415Z,7.43
2023-03-29T07:21:49.485Z,5.10
2023-03-29T07:24:16.694Z,5.27
2023-03-29T07:26:52.243Z,4.50
2023-03-29T07:29:28.685Z,4.83
2023-03-29T07:31:56.741Z,5.30
2023-03-29T07:34:51.230Z,3.57
2023-03-29T07:37:42.837Z,5.33
2023-03-29T07:40:16.192Z,3.63
2023-03-29T07:43:07.434Z,4.17
2023-03-29T07:45:35.258Z,4.97
2023-03-29T07:48:20.196Z,3.67
2023-03-29T07:50:58.347Z,3.47
2023-03-29T07:53:30.526Z,8.10
2023-03-29T07:55:58.951Z,6.97
2023-03-29T07:58:44.386Z,5.77
2023-03-29T08:01:17.165Z,5.07
2023-03-29T08:04:00.673Z,4.73
2023-03-29T08:06:46.346Z,6.47
2023-03-29T08:09:13.066Z,4.70
2023-03-29T08:11:43.047Z,4.60
2023-03-29T08:14:23.625Z,6.17
2023-03-29T08:17:01.753Z,4.83
2023-03-29T08:19:29.728Z,9.73
2023-03-29T08:22:05.313Z,5.57
2023-03-29T08:24:52.852Z,6.47
2023-03-29T08:27:21.316Z,4.63
2023-03-29T08:29:48.086Z,4.33
2023-03-29T08:32:15.292Z,4.63
2023-03-29T08:34:43.785Z,3.63
2023-03-29T08:37:21.167Z,4.03
2023-03-29T08:39:50.585Z,4.17
2023-03-29T08:43:16.938Z,5.10
2023-03-29T08:46:20.490Z,5.37
2023-03-29T08:48:54.214Z,3.93
2023-03-29T08:51:38.128Z,4.90
2023-03-29T08:54:33.891Z,6.13
2023-03-29T08:57:28.625Z,5.27
2023-03-29T09:00:04.471Z,6.83
2023-03-29T09:02:36.071Z,5.47
2023-03-29T09:05:18.639Z,10.63
2023-03-29T09:07:55.118Z,6.40
2023-03-29T09:10:35.669Z,4.63
2023-03-29T09:13:21.855Z,3.63
2023-03-29T09:15:54.891Z,6.10
2023-03-29T09:18:48.393Z,5.60
2023-03-29T09:21:43.273Z,5.23
2023-03-29T09:24:13.555Z,5.67
2023-03-29T09:27:05.751Z,4.73
2023-03-29T09:30:04.664Z,3.50
2023-03-29T09:32:54.613Z,4.97
2023-03-29T09:35:47.890Z,6.47
2023-03-29T09:38:19.431Z,5.27
2023-03-29T09:40:51.644Z,5.30
2023-03-29T09:43:36.102Z,3.63
2023-03-29T09:46:15.832Z,6.30
2023-03-29T09:48:44.328Z,5.73
2023-03-29T09:51:13.515Z,3.87
2023-03-29T09:53:40.852Z,4.77
2023-03-29T09:56:28.822Z,7.80
2023-03-29T09:59:04.253Z,5.83
2023-03-29T10:01:39.935Z,5.00
2023-03-29T10:04:12.019Z,4.63
2023-03-29T10:06:45.136Z,4.20
2023-03-29T10:09:24.227Z,4.77
2023-03-29T10:12:02.073Z,3.90
2023-03-29T10:14:38.251Z,4.43
2023-03-29T10:17:15.502Z,6.37
2023-03-29T10:19:55.796Z,5.80
2023-03-29T10:22:27.624Z,4.47
2023-03-29T10:24:57.105Z,5.70
2023-03-29T10:27:29.303Z,4.27
2023-03-29T10:29:58.368Z,5.93
2023-03-29T10:32:33.438Z,3.67
2023-03-29T10:35:14.868Z,3.67
2023-03-29T10:37:50.070Z,4.63
2023-03-29T10:40:35.278Z,5.50
2023-03-29T10:43:14.484Z,6.73
2023-03-29T10:45:42.253Z,4.07
2023-03-29T10:48:14.894Z,4.77
2023-03-29T10:50:42.827Z,3.43
2023-03-29T10:53:30.319Z,4.17
2023-03-29T10:56:35.068Z,4.87
2023-03-29T10:59:22.706Z,5.40
2023-03-29T11:01:52.243Z,4.80
2023-03-29T11:04:28.936Z,5.13
2023-03-29T11:07:13.983Z,5.17
2023-03-29T11:10:04.803Z,4.67
2023-03-29T11:12:39.916Z,5.37
2023-03-29T11:15:19.086Z,5.17
2023-03-29T11:18:14.493Z,3.50
2023-03-29T11:20:41.211Z,4.73
2023-03-29T11:23:19.892Z,5.33
2023-03-29T11:25:54.871Z,3.83
2023-03-29T11:28:28.579Z,3.17
2023-03-29T11:31:20.488Z,5.03
2023-03-29T11:34:06.121Z,3.70
2023-03-29T11:36:51.532Z,4.60
2023-03-29T11:39:24.750Z,3.80
2023-03-29T11:41:57.915Z,4.73
2023-03-29T11:44:29.705Z,4.97
2023-03-29T11:47:06.129Z,3.70
2023-03-29T11:49:46.856Z,4.13
2023-03-29T11:52:46.025Z,3.80
2023-03-29T11:55:16.986Z,4.23
2023-03-29T11:57:58.663Z,3.80
2023-03-29T12:00:31.020Z,3.73
2023-03-29T12:03:15.876Z,3.43
2023-03-29T12:05:54.805Z,3.10
2023-03-29T12:08:25.337Z,10.37
2023-03-29T12:11:04.449Z,5.70
2023-03-29T12:13:45.633Z,7.93
2023-03-29T12:16:25.443Z,4.20
2023-03-29T12:18:56.165Z,4.33
2023-03-29T12:21:26.402Z,3.57
2023-03-29T12:23:54.163Z,4.67
2023-03-29T12:26:42.496Z,4.00
2023-03-29T12:29:22.201Z,3.17
2023-03-29T12:32:27.501Z,4.10
2023-03-29T12:35:34.193Z,3.23
2023-03-29T12:38:22.888Z,4.23
2023-03-29T12:41:23.414Z,3.87
2023-03-29T12:44:14.366Z,3.97
2023-03-29T12:47:01.424Z,2.50
2023-03-29T12:49:34.451Z,4.47
2023-03-29T12:52:06.060Z,3.83
2023-03-29T12:54:33.547Z,3.20
2023-03-29T12:57:21.121Z,4.17
2023-03-29T12:59:49.704Z,3.27
2023-03-29T13:02:17.591Z,2.77
2023-03-29T13:04:50.749Z,2.70
2023-03-29T13:07:23.336Z,3.13
2023-03-29T13:09:52.826Z,3.50
2023-03-29T13:12:34.614Z,2.83
2023-03-29T13:15:05.611Z,5.33
2023-03-29T13:18:12.357Z,3.77
2023-03-29T13:21:04.682Z,4.63
2023-03-29T13:23:57.975Z,5.80
2023-03-29T13:26:54.338Z,3.37
2023-03-29T13:29:29.698Z,3.70
2023-03-29T13:32:18.919Z,3.67
2023-03-29T13:35:02.350Z,4.67
2023-03-29T13:37:52.057Z,4.00
2023-03-29T13:40:30.515Z,4.27
2023-03-29T13:43:00.501Z,5.07
2023-03-29T13:45:32.348Z,5.20
2023-03-29T13:48:24.253Z,4.07
2023-03-29T13:51:14.349Z,3.73
2023-03-29T13:53:47.762Z,3.73
2023-03-29T13:56:19.967Z,6.63
2023-03-29T13:58:53.905Z,4.53
2023-03-29T14:01:55.181Z,4.63
2023-03-29T14:04:25.575Z,3.40
2023-03-29T14:06:56.000Z,4.57
2023-03-29T14:09:28.341Z,4.73
2023-03-29T14:11:55.114Z,3.27
2023-03-29T14:14:25.730Z,3.63
2023-03-29T14:16:55.368Z,3.97
2023-03-29T14:19:27.488Z,3.90
2023-03-29T14:21:54.217Z,3.77
2023-03-29T14:24:26.006Z,3.20
2023-03-29T14:26:53.945Z,4.20
2023-03-29T14:29:21.896Z,3.37
2023-03-29T14:31:50.117Z,2.87
2023-03-29T14:34:18.606Z,3.73
2023-03-29T14:36:48.789Z,5.27
2023-03-29T14:39:18.573Z,4.97
2023-03-29T14:41:53.914Z,2.77
2023-03-29T14:44:23.745Z,4.70
2023-03-29T14:46:50.847Z,3.93
2023-03-29T14:49:20.693Z,3.20
2023-03-29T14:51:49.211Z,2.90
2023-03-29T14:54:25.185Z,5.17
2023-03-29T14:56:52.976Z,3.97
2023-03-29T14:59:54.144Z,3.30
2023-03-29T15:02:32.647Z,3.63
2023-03-29T15:05:07.480Z,3.40
2023-03-29T15:07:36.441Z,4.97
2023-03-29T15:10:06.234Z,3.87
2023-03-29T15:12:33.790Z,4.70
2023-03-29T15:15:01.344Z,3.03
2023-03-29T15:17:50.196Z,4.27
2023-03-29T15:20:31.695Z,2.80
2023-03-29T15:23:09.480Z,4.63
2023-03-29T15:25:54.732Z,3.20
2023-03-29T15:28:28.166Z,3.90
2023-03-29T15:31:17.598Z,4.87
2023-03-29T15:33:44.725Z,3.23
2023-03-29T15:36:13.958Z,3.93
2023-03-29T15:38:44.478Z,4.77
2023-03-29T15:41:14.019Z,6.23
2023-03-29T15:43:41.375Z,3.60
2023-03-29T15:46:10.398Z,3.63
2023-03-29T15:48:37.333Z,4.50
2023-03-29T15:51:06.499Z,3.53
2023-03-29T15:53:33.710Z,3.90
2023-03-29T15:56:02.124Z,4.17
2023-03-29T15:58:31.635Z,4.10
2023-03-29T16:01:36.656Z,4.30
2023-03-29T16:04:04.439Z,3.87
2023-03-29T16:06:32.230Z,4.20
2023-03-29T16:08:59.125Z,4.43
2023-03-29T16:11:26.990Z,4.23
2023-03-29T16:13:55.683Z,5.97
2023-03-29T16:16:22.689Z,4.67
2023-03-29T16:18:49.516Z,4.20
2023-03-29T16:21:18.737Z,3.90
2023-03-29T16:23:47.006Z,3.77
2023-03-29T16:26:17.106Z,5.03
2023-03-29T16:28:43.932Z,3.17
2023-03-29T16:31:11.925Z,5.10
2023-03-29T16:33:40.536Z,4.03
2023-03-29T16:36:08.133Z,3.00
2023-03-29T16:38:34.889Z,3.33
2023-03-29T16:41:02.482Z,3.93
2023-03-29T16:43:29.119Z,5.37
2023-03-29T16:45:56.822Z,4.10
2023-03-29T16:48:23.815Z,4.53
2023-03-29T16:50:50.711Z,4.83
2023-03-29T16:53:21.327Z,4.93
2023-03-29T16:55:49.520Z,4.33
2023-03-29T16:58:16.202Z,6.00
2023-03-29T17:00:44.960Z,5.10
2023-03-29T17:03:13.151Z,4.23
2023-03-29T17:05:41.644Z,3.97
2023-03-29T17:08:10.045Z,3.67
2023-03-29T17:10:39.856Z,4.60
2023-03-29T17:13:06.751Z,4.40
2023-03-29T17:15:34.279Z,4.30
2023-03-29T17:18:02.457Z,5.20
2023-03-29T17:20:29.236Z,3.83
2023-03-29T17:22:56.098Z,4.47
2023-03-29T17:25:23.552Z,4.97
2023-03-29T17:27:51.014Z,6.10
2023-03-29T17:30:18.033Z,6.17
2023-03-29T17:32:45.752Z,5.80
2023-03-29T17:35:13.263Z,4.27
2023-03-29T17:37:40.084Z,4.83
2023-03-29T17:40:14.080Z,3.83
2023-03-29T17:42:41.882Z,4.23
2023-03-29T17:45:10.275Z,3.10
2023-03-29T17:47:38.212Z,3.83
2023-03-29T17:50:06.772Z,5.40
2023-03-29T17:52:33.719Z,6.33
2023-03-29T17:55:00.789Z,4.37
2023-03-29T17:57:29.831Z,3.27
2023-03-29T17:59:56.472Z,3.57
2023-03-29T18:02:24.482Z,2.93
2023-03-29T18:04:51.690Z,6.10
2023-03-29T18:07:18.560Z,4.93
2023-03-29T18:09:45.378Z,4.67
2023-03-29T18:12:12.429Z,4.30
2023-03-29T18:14:39.073Z,5.03
2023-03-29T18:17:05.932Z,5.10
2023-03-29T18:19:32.612Z,4.90
2023-03-29T18:21:59.341Z,4.73
2023-03-29T18:24:26.117Z,3.37
2023-03-29T18:26:52.958Z,10.93
2023-03-29T18:29:19.680Z,4.80
2023-03-29T18:31:46.477Z,4.73
2023-03-29T18:34:13.159Z,3.27
2023-03-29T18:36:39.947Z,4.23
2023-03-29T18:39:06.727Z,5.37
2023-03-29T18:41:34.520Z,3.37
2023-03-29T18:44:01.530Z,3.40
2023-03-29T18:46:31.077Z,3.73
2023-03-29T18:49:01.103Z,5.73
2023-03-29T18:51:28.292Z,4.40
2023-03-29T18:53:55.997Z,4.50
2023-03-29T18:56:22.830Z,5.03
2023-03-29T18:58:49.641Z,3.73
2023-03-29T19:01:16.379Z,4.30
2023-03-29T19:03:43.488Z,4.87
2023-03-29T19:06:11.762Z,3.83
2023-03-29T19:08:42.070Z,5.43
2023-03-29T19:11:14.263Z,5.20
2023-03-29T19:13:41.562Z,4.43
2023-03-29T19:16:08.606Z,4.40
2023-03-29T19:18:35.750Z,4.20
2023-03-29T19:21:02.497Z,3.67
2023-03-29T19:23:29.250Z,4.47
2023-03-29T19:25:58.294Z,5.13
2023-03-29T19:28:25.911Z,5.53
2023-03-29T19:30:52.895Z,3.77
2023-03-29T19:33:20.002Z,5.17
2023-03-29T19:35:49.214Z,7.03
2023-03-29T19:38:16.040Z,5.13
2023-03-29T19:40:47.130Z,4.77
2023-03-29T19:43:16.802Z,4.37
2023-03-29T19:45:44.856Z,5.97
2023-03-29T19:48:21.153Z,8.67
2023-03-29T19:50:48.792Z,5.27
2023-03-29T19:53:15.672Z,5.93
2023-03-29T19:55:44.194Z,5.10
2023-03-29T19:58:10.974Z,5.60
2023-03-29T20:00:38.915Z,3.53
2023-03-29T20:03:09.302Z,5.57
2023-03-29T20:05:38.338Z,6.37
2023-03-29T20:08:05.331Z,6.60
2023-03-29T20:10:32.940Z,6.80
2023-03-29T20:12:59.593Z,6.87
2023-03-29T20:15:26.482Z,8.03
2023-03-29T20:17:57.039Z,4.23
2023-03-29T20:20:26.659Z,5.73
2023-03-29T20:23:04.505Z,10.17
2023-03-29T20:25:32.567Z,8.37
2023-03-29T20:27:59.617Z,5.30
2023-03-29T20:30:26.629Z,6.10
2023-03-29T20:32:53.406Z,5.83
2023-03-29T20:35:20.155Z,7.63
2023-03-29T20:37:46.878Z,8.80
2023-03-29T20:40:15.521Z,6.33
2023-03-29T20:42:42.257Z,5.23
2023-03-29T20:45:18.413Z,8.57
2023-03-29T20:47:50.357Z,5.40
2023-03-29T20:50:18.782Z,9.50
2023-03-29T20:52:45.497Z,6.63
2023-03-29T20:55:12.944Z,6.43
2023-03-29T20:57:42.116Z,4.37
2023-03-29T21:00:11.980Z,8.83
2023-03-29T21:02:39.263Z,6.07
2023-03-29T21:05:06.532Z,6.77
2023-03-29T21:07:33.223Z,10.13
2023-03-29T21:10:01.021Z,6.37
2023-03-29T21:12:27.709Z,7.10
2023-03-29T21:14:55.088Z,5.20
2023-03-29T21:17:22.030Z,8.73
2023-03-29T21:19:48.957Z,5.50
2023-03-29T21:22:15.666Z,5.97
2023-03-29T21:24:42.277Z,9.37
2023-03-29T21:27:09.045Z,7.97
2023-03-29T21:29:35.703Z,6.97
2023-03-29T21:32:02.490Z,6.00
2023-03-29T21:34:29.138Z,9.00
2023-03-29T21:36:56.000Z,12.77
2023-03-29T21:39:25.489Z,7.53
2023-03-29T21:41:52.839Z,6.70
2023-03-29T21:44:20.341Z,8.03
2023-03-29T21:46:47.017Z,9.33
2023-03-29T21:49:13.793Z,11.33
2023-03-29T21:51:40.545Z,10.30
2023-03-29T21:54:07.204Z,8.67
2023-03-29T21:56:33.887Z,8.57
2023-03-29T21:59:00.655Z,6.60
2023-03-29T22:01:27.363Z,10.43
2023-03-29T22:03:54.032Z,12.23
2023-03-29T22:06:23.762Z,9.90
2023-03-29T22:08:52.993Z,10.07
2023-03-29T22:11:20.125Z,7.87
2023-03-29T22:13:46.797Z,11.77
2023-03-29T22:16:14.120Z,9.87
2023-03-29T22:18:44.173Z,8.60
2023-03-29T22:21:17.350Z,10.70
2023-03-29T22:23:49.837Z,9.80
2023-03-29T22:26:19.019Z,12.03
2023-03-29T22:28:46.045Z,10.20
2023-03-29T22:31:17.997Z,11.13
2023-03-29T22:33:45.227Z,8.20
2023-03-29T22:36:27.275Z,11.60
2023-03-29T22:38:54.533Z,7.47
2023-03-29T22:41:23.691Z,11.30
2023-03-29T22:43:52.479Z,9.43
2023-03-29T22:46:19.877Z,10.33
2023-03-29T22:48:46.832Z,9.27
2023-03-29T22:51:14.612Z,12.63
2023-03-29T22:53:41.406Z,10.10
2023-03-29T22:56:09.141Z,8.27
2023-03-29T22:58:37.031Z,9.97
2023-03-29T23:01:05.236Z,9.80
2023-03-29T23:03:32.299Z,7.87
2023-03-29T23:06:02.318Z,7.50
2023-03-29T23:08:31.127Z,10.57
2023-03-29T23:10:58.195Z,10.63
2023-03-29T23:13:28.673Z,10.27
2023-03-29T23:15:59.907Z,5.73
2023-03-29T23:18:28.655Z,10.60
2023-03-29T23:20:57.312Z,9.60
2023-03-29T23:23:26.723Z,12.73
2023-03-29T23:25:54.429Z,7.43
2023-03-29T23:28:24.980Z,9.27
2023-03-29T23:31:03.569Z,11.40
2023-03-29T23:33:35.953Z,11.43
2023-03-29T23:36:05.646Z,11.30
2023-03-29T23:38:36.830Z,17.97
2023-03-29T23:41:08.286Z,10.67
2023-03-29T23:43:37.166Z,8.40
2023-03-29T23:46:07.228Z,8.73
2023-03-29T23:48:34.562Z,8.57
2023-03-29T23:51:02.586Z,11.57
2023-03-29T23:53:30.533Z,9.23
2023-03-29T23:56:02.972Z,11.03
2023-03-29T23:58:31.685Z,9.63
